Kinetic One Castle Combe TT - Race 1
Skip Navigation Links
Results
Other Races in Series
Smartphone Results
22 Apr 2015
HyperLink
Ckick on name for detailed individual results.
Page 1 of 2 (62 items)
[1]2
Pos
Bib No
Fav
Share
Name
Time
Category
Cat Pos
Gender
Gen Pos
Club
Pace
Split 1
G/Pos
Lap 1
G/Pos
Lap 2
G/Pos
Lap 3
G/Pos
Lap 4
G/Pos
Lap 5
G/Pos
154Ben ANSTIE20:35.56Sen1Male1Seventy Three Degrees29.1 m/hr1:38.4923:45.3513:46.8613:50.5613:50.8013:43.491
252Niall TODD21:15.10Sen2Male2Tavistock Wheelers CC28.2 m/hr1:43.4593:56.1223:56.7723:54.2323:55.7923:48.732
325Pete KIBBLE21:25.15Jun1Male3Velocity Global Bikes28.0 m/hr1:35.4813:57.9934:02.0033:58.3833:57.8033:53.483
450David JANES22:11.40Sen3Male4Vc Walcot27.0 m/hr1:40.4344:06.0454:06.6554:09.8674:07.0344:01.384
551Martin ALDAM22:19.71Vet1Male5Frome And District Wheelers26.9 m/hr1:43.74104:01.3644:03.7244:09.4864:12.8174:08.596
656Rob Abraham22:20.89Sen4Male6 26.8 m/hr1:41.4554:07.2274:09.9274:06.9944:09.4154:05.885
759Kirk & Will Latham & Crudginton22:34.012Up1Male7Athlos Tri Racing team26.6 m/hr1:42.2874:06.2664:08.9964:13.6084:13.3684:09.497
848Chris FOX22:41.95Vet2Male8 26.4 m/hr1:50.19194:10.5284:11.7484:07.6754:12.1964:09.628
949Jon PRIDHAM23:14.01Vet3Male9Vectis Roads Cycling Club (VRCC) - Isle of Wight25.8 m/hr1:48.02144:16.74104:18.38104:15.1094:20.15104:15.6110
1062Will Poole23:27.70Sen5Male10Badtri25.6 m/hr1:39.3034:12.1094:24.50134:26.50144:26.90154:18.4011
1146Micheal YOUNG23:31.76Sen6Male11 25.5 m/hr1:50.67214:22.34144:18.3794:19.76104:19.3794:21.2414
1258Ben Skinner23:37.57Sen7Male12 25.4 m/hr1:41.6164:21.58134:21.04124:27.30154:24.99134:21.0313
1310Andy MORGAN23:41.30Vet4Male13Kinetic One25.3 m/hr1:45.30124:21.00124:27.20174:25.70134:22.90124:19.2012
1447Ian GILES23:41.34Sen8Male14Ironcrew25.3 m/hr1:50.25204:22.83154:20.59114:20.06114:25.96144:21.6315
1545Harry PALMER23:44.66Jun2Male15 25.3 m/hr1:49.82174:28.67164:26.45154:23.86124:20.59114:15.269
1653Peter BURROWS23:57.27Sen9Male16Ironcrew25.0 m/hr1:42.8884:20.51114:26.55164:28.56164:34.09184:24.6517
1731Martin NEILL24:16.75Vet5Male17Flying Monk Triathlon Club24.7 m/hr1:53.40224:32.77174:26.45144:29.93184:29.85174:24.3316
1844Ross BURY24:17.79Vet6Male18Bristol Road Club24.7 m/hr1:44.87114:33.25184:32.32184:29.55174:29.82164:27.9718
1941Claire HANN24:29.27Sen1Female1BikeScience-Boardman elite24.5 m/hr1:54.6034:35.3814:28.1714:27.5514:30.6814:32.871
2032Sian CAHILL25:13.03Sen2Female2Zappi's Racing Team23.8 m/hr1:49.5814:37.0734:51.0244:41.9024:35.7624:37.692
2140Dan WOOD25:18.49Sen10Male19Flying Monk Tri Club23.7 m/hr1:54.48244:40.48214:41.18204:39.28194:40.26214:42.7925
2242Sam KENYON25:23.53Vet7Male20Flying Monk Tri Club23.6 m/hr1:48.80164:45.21274:38.58194:40.98204:44.72244:45.2227
2333Andrew PALMER25:24.82Sen11Male21 23.6 m/hr1:54.55254:43.67254:48.36264:41.51214:40.01194:36.7020
2460Tim Woodhead25:25.26Sen12Male22Vc Walcot23.6 m/hr1:55.72264:43.17234:41.54214:45.44234:40.07204:39.3021
2520Ewen LEWIS25:27.60Sen13Male23Slinn Allstars23.6 m/hr1:48.46154:36.52194:43.56254:43.03224:41.58224:54.4231
2619Stephanie KNOTT25:28.16Sen3Female3 23.6 m/hr1:51.0224:45.8244:44.0934:43.9044:41.6034:41.713
2729Fiona NESFIELD25:35.18Sen4Female4Mike Vaughan Cycles23.4 m/hr1:55.8764:36.4724:42.0324:43.2834:50.9654:46.564
2814Jonathan SINCLAIR25:38.13SupVet1Male24 23.4 m/hr1:56.48284:47.85284:52.30294:50.13274:43.24234:28.1119
2926Ray PERKINS25:38.76SupVet2Male25Psyclewerx23.4 m/hr1:57.55294:43.42244:42.44244:47.53244:47.49274:40.3223
3036Shaun FEATHERSTONE25:38.92SupVet3Male26BAD Tri23.4 m/hr1:59.77314:38.36204:42.10234:49.73264:46.22254:42.7324
3157Mark Evans26:00.10SupVet4Male27Flying Monk Tri Club23.1 m/hr2:01.42324:44.70264:41.99224:50.86284:53.59294:47.5328
3213Pete WOOD26:10.30Sen14Male28 22.9 m/hr2:01.71334:50.57294:54.83314:51.86294:51.10284:40.2222
3337Paul FERGUSON26:11.62Sen15Male29Vc Walcot22.9 m/hr1:56.16274:41.92224:49.48274:52.35304:54.48304:57.2132
3416Mike PARTNER26:20.62Vet8Male30Chippenham Tri22.8 m/hr1:54.00234:57.41324:52.38304:48.02254:56.45314:52.3530
3528Graham JONES26:28.66SupVet5Male31Bath Cycling Club22.7 m/hr1:49.97184:52.91304:57.49324:57.09325:00.94324:50.2429
3622Robin FOX26:31.38SupVet6Male32Dursley Road Club22.6 m/hr2:05.93364:57.57334:59.52334:56.57314:46.79264:44.9826
3761Emma Seddon26:48.87Sen5Female5BAD Tri22.4 m/hr1:55.1454:52.2454:55.2255:02.6975:04.7174:58.855
3815Sarah SMITH27:11.88Sen6Female6 22.1 m/hr1:54.7445:02.0465:04.8875:01.8265:04.3365:04.056
3935Nigel EVANS27:21.52Vet9Male33Avon Valley Triathletes21.9 m/hr2:02.72355:03.53345:02.78345:01.37335:03.51345:07.5934
403James CANFER27:54.06Sen16Male34none21.5 m/hr1:45.52135:15.27375:20.53395:12.40365:11.13355:09.2035
4139Nathan KIRBY28:12.35Sen17Male35 21.3 m/hr1:59.60305:09.21365:14.04355:07.96355:14.68375:26.8539
4221George SCULLY28:14.82SupVet601Male36Gloucester City Cycling Club21.2 m/hr2:02.31345:16.17385:16.10375:15.19375:14.41365:10.6136
434Stephen TURTLE28:22.52Vet10Male37Swindon Striders21.1 m/hr2:21.30414:54.67315:15.39365:18.87385:15.41385:16.8738
4430Kate DERRICK28:32.55Sen7Female7 21.0 m/hr2:01.8295:22.6795:24.4885:16.5385:15.1985:11.857
4511Nigel SHIRES28:34.45SupVet7Male38 21.0 m/hr2:08.01375:18.45395:18.55385:20.32395:17.14395:11.9737
467Lauren BOOTH29:48.37Jun1Female8 20.1 m/hr2:20.48145:02.9475:46.93125:40.18105:41.80115:16.038
4717John BUSH29:53.45SupVet8Male39Maidenhead & District Cycling Club20.1 m/hr2:09.41385:34.79405:38.83405:30.95405:26.93405:32.5240
4855Bethan RHODES30:05.88Sen8Female9 19.9 m/hr2:13.66105:29.12105:35.0295:39.0595:36.6695:32.3510
496Jenny BUCKLEY30:29.30Sen9Female10BAD Tri19.7 m/hr2:31.54155:30.48115:44.92115:41.95115:36.98105:23.429
5027Mary DERRICK30:59.19SupVet1Female11 19.4 m/hr2:16.27125:41.13125:42.77105:45.03125:43.71125:50.2712
Page 1 of 2 (62 items)
[1]2
fb

HyperLink Copyright (c) G Vincent, 2018